Cobalt, Canada
Current Conditions -  °F | °C
As of 7:00 AM on Friday 21 Nov 2014 (Local Time) from CYXR Reporting Station
Clear Clear  
Wind Chill: -12°   Ceiling: Unl
Heat Index: -2°   Visibility: 9mi
Dew Point: -6°   Wind: 5mph
Humidity: 85%   Direction: 260°W
Pressure: 30.16"   Gusts: NA
Location:  47.38°N, 79.68°W
Report Text: CYXR 211200Z AUTO 26004KT 9SM CLR M19/M21 A3016 RMK SLP236
Loading
Personal Weather Stations






























Interactive Weather Map New forecast layout! Learn more

10-Day Weather Forecast

Advertisements
Track Severe Weather on mobile